Thursday, October 19, 2017, 7:08 AM EDT
Back to Local

KPHL, Philadelphia International Airpt

Location: Philadelphia, PA, United States Lat: 39.867
Local Time: 7:08 AM EDT (11:08 GMT) Lon: -75.233
Time Zone: US/Eastern Elev: 19 ft

Show me the last for .
Show Coded

Time T Td Feel RH Dir Speed Gust Alt SLP Vis Weather Sky Remarks
2017-10-19 06:54 51 48 - 89 210° 6 - 30.28 30.27 10 SCT180 SCT250 None
2017-10-19 05:54 52 48 - 86 200° 5 - 30.28 30.27 10 CLR None
2017-10-19 04:54 52 47 - 82 - Calm - 30.28 30.28 10 SCT250 None
2017-10-19 03:54 53 47 - 79 240° 5 - 30.28 30.27 10 SCT280 None
2017-10-19 02:54 53 47 - 79 220° 6 - 30.29 30.29 10 FEW250 None
2017-10-19 01:54 56 47 - 71 230° 8 - 30.30 30.29 10 FEW250 6-hr Min Temp (2am): 55.9°F
6-hr Max Temp (2am): 64.0°F
2017-10-19 00:54 57 47 - 68 230° 7 - 30.30 30.30 10 CLR 24-hr Min Temp (1am): 48.0°F
24-hr Max Temp (1am): 72.0°F
2017-10-18 23:54 58 48 - 69 220° 8 - 30.31 30.31 10 CLR None
2017-10-18 22:54 58 50 - 74 190° 5 - 30.31 30.31 10 CLR None
2017-10-18 21:54 58 50 - 74 180° 6 - 30.32 30.32 10 CLR None
2017-10-18 20:54 61 48 - 62 200° 8 - 30.31 30.31 10 CLR None
2017-10-18 19:54 64 46 - 51 240° 8 - 30.30 30.30 10 CLR 6-hr Min Temp (8pm): 64.0°F
6-hr Max Temp (8pm): 72.0°F
2017-10-18 18:54 67 45 - 45 230° 10 - 30.29 30.29 10 FEW250 None
2017-10-18 17:54 69 46 - 43 220° 7 - 30.28 30.28 10 CLR None
2017-10-18 16:54 71 45 - 39 230° 12 - 30.28 30.28 10 CLR None
2017-10-18 15:54 71 44 - 37 240° 9 - 30.29 30.29 10 CLR None
2017-10-18 14:54 70 44 - 39 240° 8 - 30.30 30.30 10 CLR None
2017-10-18 13:54 69 44 - 40 210° 6 - 30.31 30.31 10 CLR 6-hr Min Temp (2pm): 48.9°F
6-hr Max Temp (2pm): 70.0°F
2017-10-18 12:54 67 44 - 43 190° 8 - 30.34 30.33 10 CLR None
2017-10-18 11:54 65 43 - 44 Variable 3 - 30.36 30.35 10 CLR None
2017-10-18 10:54 61 42 - 49 230° 7 - 30.36 30.36 10 CLR None
2017-10-18 09:54 56 39 - 52 260° 6 - 30.37 30.36 10 CLR None
2017-10-18 08:54 53 43 - 68 260° 7 - 30.37 30.36 10 CLR None
2017-10-18 07:54 49 41 47 73 220° 5 - 30.36 30.36 10 CLR 6-hr Min Temp (8am): 48.0°F
6-hr Max Temp (8am): 50.0°F

Support USWX by starting your Amazon purchase here.